createdAt,value
2023-02-16T04:34:38.526Z,-3.23
2023-02-16T04:37:06.672Z,-3.23
2023-02-16T04:39:35.349Z,-3.25
2023-02-16T04:42:04.151Z,-3.24
2023-02-16T04:44:33.009Z,-3.23
2023-02-16T04:47:01.075Z,-3.23
2023-02-16T04:49:29.136Z,-3.23
2023-02-16T04:51:57.500Z,-3.22
2023-02-16T04:54:25.471Z,-3.19
2023-02-16T04:56:53.640Z,-3.18
2023-02-16T04:59:21.770Z,-3.18
2023-02-16T05:01:50.019Z,-3.19
2023-02-16T05:04:19.090Z,-3.22
2023-02-16T05:06:47.058Z,-3.24
2023-02-16T05:09:15.279Z,-3.25
2023-02-16T05:12:02.228Z,-3.27
2023-02-16T05:14:45.633Z,-3.28
2023-02-16T05:17:19.639Z,-3.31
2023-02-16T05:19:52.342Z,-3.32
2023-02-16T05:22:21.086Z,-3.33
2023-02-16T05:24:49.431Z,-3.34
2023-02-16T05:27:23.093Z,-3.32
2023-02-16T05:29:51.962Z,-3.31
2023-02-16T05:32:20.723Z,-3.31
2023-02-16T05:34:48.752Z,-3.31
2023-02-16T05:37:18.725Z,-3.33
2023-02-16T05:39:46.918Z,-3.35
2023-02-16T05:42:14.874Z,-3.37
2023-02-16T05:44:42.861Z,-3.38
2023-02-16T05:47:11.425Z,-3.38
2023-02-16T05:49:39.477Z,-3.35
2023-02-16T05:52:07.514Z,-3.28
2023-02-16T05:54:35.590Z,-3.16
2023-02-16T05:57:04.330Z,-3.02
2023-02-16T05:59:32.263Z,-2.86
2023-02-16T06:02:00.911Z,-2.71
2023-02-16T06:04:29.481Z,-2.53
2023-02-16T06:06:57.464Z,-2.34
2023-02-16T06:09:25.637Z,-2.16
2023-02-16T06:11:54.700Z,-1.98
2023-02-16T06:14:22.939Z,-1.79
2023-02-16T06:16:54.431Z,-1.63
2023-02-16T06:19:22.848Z,-1.50
2023-02-16T06:21:51.220Z,-1.38
2023-02-16T06:24:19.409Z,-1.27
2023-02-16T06:26:47.517Z,-1.18
2023-02-16T06:29:15.663Z,-1.09
2023-02-16T06:31:43.875Z,-0.99
2023-02-16T06:34:12.013Z,-0.90
2023-02-16T06:36:42.388Z,-0.80
2023-02-16T06:39:10.963Z,-0.67
2023-02-16T06:41:40.524Z,-0.55
2023-02-16T06:44:14.086Z,-0.44
2023-02-16T06:46:44.422Z,-0.34
2023-02-16T06:49:14.732Z,-0.24
2023-02-16T06:51:43.036Z,-0.15
2023-02-16T06:54:11.660Z,-0.07
2023-02-16T06:56:40.108Z,0.03
2023-02-16T06:59:08.174Z,0.14
2023-02-16T07:01:36.192Z,0.26
2023-02-16T07:04:04.304Z,0.38
2023-02-16T07:06:32.605Z,0.51
2023-02-16T07:09:01.033Z,0.66
2023-02-16T07:11:29.318Z,0.83
2023-02-16T07:13:57.830Z,1.01
2023-02-16T07:16:26.030Z,1.19
2023-02-16T07:18:54.031Z,1.37
2023-02-16T07:21:22.082Z,1.54
2023-02-16T07:23:50.065Z,1.72
2023-02-16T07:26:19.323Z,1.88
2023-02-16T07:28:47.538Z,2.05
2023-02-16T07:31:17.526Z,2.23
2023-02-16T07:33:45.635Z,2.42
2023-02-16T07:36:14.332Z,2.60
2023-02-16T07:38:42.370Z,2.75
2023-02-16T07:41:11.900Z,2.90
2023-02-16T07:43:42.826Z,3.05
2023-02-16T07:46:11.023Z,3.17
2023-02-16T07:48:39.153Z,3.29
2023-02-16T07:51:07.868Z,3.39
2023-02-16T07:53:35.983Z,3.53
2023-02-16T07:56:04.275Z,3.68
2023-02-16T07:58:32.383Z,3.83
2023-02-16T08:01:08.187Z,3.94
2023-02-16T08:03:36.358Z,4.12
2023-02-16T08:06:05.040Z,4.30
2023-02-16T08:08:33.642Z,4.52
2023-02-16T08:11:11.802Z,4.76
2023-02-16T08:13:40.592Z,5.01
2023-02-16T08:16:10.804Z,5.22
2023-02-16T08:18:40.715Z,5.43
2023-02-16T08:21:14.510Z,5.60
2023-02-16T08:23:47.580Z,5.72
2023-02-16T08:26:19.606Z,5.82
2023-02-16T08:28:50.223Z,5.86
2023-02-16T08:31:25.101Z,5.86
2023-02-16T08:33:54.292Z,5.82
2023-02-16T08:36:29.667Z,5.74
2023-02-16T08:38:58.100Z,5.72
2023-02-16T08:41:30.869Z,5.68
2023-02-16T08:44:01.329Z,5.62
2023-02-16T08:46:32.518Z,5.58
2023-02-16T08:49:02.244Z,5.61
2023-02-16T08:51:34.753Z,5.72
2023-02-16T08:54:06.045Z,5.85
2023-02-16T08:56:34.629Z,5.95
2023-02-16T08:59:02.850Z,5.96
2023-02-16T09:01:30.930Z,5.92
2023-02-16T09:03:59.112Z,5.89
2023-02-16T09:06:27.665Z,5.86
2023-02-16T09:08:57.325Z,5.87
2023-02-16T09:11:25.819Z,5.96
2023-02-16T09:13:55.059Z,6.04
2023-02-16T09:16:24.547Z,6.11
2023-02-16T09:18:53.226Z,6.23
2023-02-16T09:21:25.704Z,6.36
2023-02-16T09:23:56.501Z,6.44
2023-02-16T09:26:26.885Z,6.42
2023-02-16T09:28:55.310Z,6.43
2023-02-16T09:31:27.769Z,6.46
2023-02-16T09:34:28.464Z,6.54
2023-02-16T09:36:56.587Z,6.63
2023-02-16T09:39:24.561Z,6.63
2023-02-16T09:42:15.869Z,6.67
2023-02-16T09:44:55.952Z,6.73
2023-02-16T09:47:31.205Z,6.78
2023-02-16T09:50:02.265Z,6.88
2023-02-16T09:52:37.718Z,7.02
2023-02-16T09:55:14.580Z,7.15
2023-02-16T09:58:01.325Z,7.25
2023-02-16T10:00:33.017Z,7.30
2023-02-16T10:03:40.024Z,7.27
2023-02-16T10:06:17.494Z,7.24
2023-02-16T10:08:51.482Z,7.36
2023-02-16T10:11:46.067Z,7.38
2023-02-16T10:14:50.594Z,7.41
2023-02-16T10:17:31.613Z,7.52
2023-02-16T10:20:19.864Z,7.59
2023-02-16T10:23:12.358Z,7.67
2023-02-16T10:25:40.127Z,7.68
2023-02-16T10:28:17.640Z,7.65
2023-02-16T10:31:00.932Z,7.68
2023-02-16T10:33:53.668Z,7.78
2023-02-16T10:36:27.647Z,7.86
2023-02-16T10:39:05.068Z,7.83
2023-02-16T10:41:45.841Z,7.90
2023-02-16T10:44:21.807Z,8.01
2023-02-16T10:46:59.948Z,8.08
2023-02-16T10:49:31.354Z,8.17
2023-02-16T10:52:03.501Z,8.23
2023-02-16T10:54:33.224Z,8.33
2023-02-16T10:57:06.100Z,8.36
2023-02-16T10:59:38.984Z,8.38
2023-02-16T11:04:41.505Z,8.42
2023-02-16T11:07:14.309Z,8.44
2023-02-16T11:09:44.055Z,8.40
2023-02-16T11:12:22.957Z,8.37
2023-02-16T11:14:54.136Z,8.44
2023-02-16T11:17:23.989Z,8.50
2023-02-16T11:19:56.551Z,8.55
2023-02-16T11:22:31.351Z,8.60
2023-02-16T11:25:17.911Z,8.62
2023-02-16T11:27:57.283Z,8.56
2023-02-16T11:30:37.396Z,8.54
2023-02-16T11:33:23.972Z,8.55
2023-02-16T11:35:52.522Z,8.57
2023-02-16T11:38:31.822Z,8.58
2023-02-16T11:41:02.494Z,8.64
2023-02-16T11:43:35.278Z,8.69
2023-02-16T11:46:22.974Z,8.77
2023-02-16T11:48:51.266Z,8.89
2023-02-16T11:51:34.529Z,8.99
2023-02-16T11:54:07.749Z,9.06
2023-02-16T11:56:35.839Z,9.07
2023-02-16T11:59:17.132Z,9.06
2023-02-16T12:02:00.587Z,9.10
2023-02-16T12:04:46.684Z,9.16
2023-02-16T12:07:36.684Z,9.24
2023-02-16T12:10:30.978Z,9.25
2023-02-16T12:13:10.902Z,9.28
2023-02-16T12:16:00.020Z,9.33
2023-02-16T12:18:42.468Z,9.46
2023-02-16T12:21:10.331Z,9.49
2023-02-16T12:24:18.377Z,9.53
2023-02-16T12:27:02.088Z,9.62
2023-02-16T12:29:53.844Z,9.72
2023-02-16T12:32:31.171Z,9.81
2023-02-16T12:35:36.648Z,9.88
2023-02-16T12:38:29.622Z,9.93
2023-02-16T12:41:16.141Z,9.89
2023-02-16T12:43:51.621Z,9.73
2023-02-16T12:46:24.049Z,9.68
2023-02-16T12:49:01.179Z,9.62
2023-02-16T12:51:36.301Z,9.59
2023-02-16T12:54:11.166Z,9.62
2023-02-16T12:56:45.843Z,9.61
2023-02-16T12:59:22.408Z,9.57
2023-02-16T13:01:54.962Z,9.54
2023-02-16T13:04:44.177Z,9.56
2023-02-16T13:07:23.392Z,9.58
2023-02-16T13:10:07.028Z,9.59
2023-02-16T13:12:58.137Z,9.60
2023-02-16T13:15:37.100Z,9.51
2023-02-16T13:18:20.327Z,9.44
2023-02-16T13:20:54.069Z,9.40
2023-02-16T13:23:27.703Z,9.36
2023-02-16T13:26:28.403Z,9.31
2023-02-16T13:29:23.185Z,9.19
2023-02-16T13:32:06.260Z,9.05
2023-02-16T13:34:38.334Z,8.96
2023-02-16T13:37:51.928Z,8.89
2023-02-16T13:40:36.716Z,8.82
2023-02-16T13:43:16.862Z,8.74
2023-02-16T13:45:47.567Z,8.69
2023-02-16T13:48:23.748Z,8.69
2023-02-16T13:51:15.475Z,8.65
2023-02-16T13:53:52.785Z,8.60
2023-02-16T13:56:29.722Z,8.60
2023-02-16T13:59:21.155Z,8.58
2023-02-16T14:01:50.966Z,8.52
2023-02-16T14:04:22.224Z,8.46
2023-02-16T14:07:13.399Z,8.39
2023-02-16T14:09:41.380Z,8.32
2023-02-16T14:12:09.468Z,8.28
2023-02-16T14:14:43.144Z,8.22
2023-02-16T14:17:25.111Z,8.17
2023-02-16T14:20:05.295Z,8.12
2023-02-16T14:22:57.477Z,8.07
2023-02-16T14:25:32.232Z,8.04
2023-02-16T14:28:21.548Z,8.00
2023-02-16T14:30:56.952Z,7.96
2023-02-16T14:33:43.700Z,7.88
2023-02-16T14:36:17.206Z,7.81
2023-02-16T14:38:49.950Z,7.76
2023-02-16T14:41:24.142Z,7.74
2023-02-16T14:44:25.854Z,7.71
2023-02-16T14:46:59.515Z,7.66
2023-02-16T14:49:51.901Z,7.59
2023-02-16T14:52:27.052Z,7.52
2023-02-16T14:55:40.189Z,7.47
2023-02-16T14:58:27.774Z,7.40
2023-02-16T15:01:16.412Z,7.31
2023-02-16T15:03:54.881Z,7.23
2023-02-16T15:06:31.601Z,7.15
2023-02-16T15:09:13.485Z,7.06
2023-02-16T15:12:08.989Z,6.99
2023-02-16T15:14:43.111Z,6.91
2023-02-16T15:17:36.497Z,6.83
2023-02-16T15:20:19.937Z,6.74
2023-02-16T15:22:54.406Z,6.66
2023-02-16T15:25:39.747Z,6.58
2023-02-16T15:28:10.821Z,6.52
2023-02-16T15:30:59.114Z,6.45
2023-02-16T15:33:33.701Z,6.36
2023-02-16T15:36:08.958Z,6.28
2023-02-16T15:38:39.746Z,6.21
2023-02-16T15:41:13.274Z,6.14
2023-02-16T15:43:50.357Z,6.07
2023-02-16T15:46:29.084Z,6.01
2023-02-16T15:48:57.441Z,5.93
2023-02-16T15:51:34.934Z,5.86
2023-02-16T15:54:07.478Z,5.79
2023-02-16T15:56:50.481Z,5.71
2023-02-16T15:59:35.376Z,5.61
2023-02-16T16:02:07.034Z,5.51
2023-02-16T16:04:38.909Z,5.42
2023-02-16T16:07:12.125Z,5.33
2023-02-16T16:09:42.186Z,5.23
2023-02-16T16:12:13.789Z,5.12
2023-02-16T16:14:56.994Z,5.00
2023-02-16T16:17:28.224Z,4.86
2023-02-16T16:19:58.288Z,4.71
2023-02-16T16:22:35.084Z,4.56
2023-02-16T16:25:42.222Z,4.39
2023-02-16T16:28:28.516Z,4.19
2023-02-16T16:31:31.256Z,4.01
2023-02-16T16:34:08.889Z,3.88
2023-02-16T16:36:47.038Z,3.77
2023-02-16T16:39:17.851Z,3.68
2023-02-16T16:42:06.586Z,3.61
2023-02-16T16:44:37.721Z,3.52
2023-02-16T16:47:26.734Z,3.46
2023-02-16T16:49:58.995Z,3.42
2023-02-16T16:52:45.057Z,3.36
2023-02-16T16:55:27.064Z,3.28
2023-02-16T16:58:01.336Z,3.18
2023-02-16T17:00:34.479Z,3.07
2023-02-16T17:03:04.889Z,2.96
2023-02-16T17:05:34.575Z,2.86
2023-02-16T17:08:04.180Z,2.75
2023-02-16T17:10:32.625Z,2.63
2023-02-16T17:13:01.024Z,2.54
2023-02-16T17:15:43.306Z,2.44
2023-02-16T17:18:21.141Z,2.32
2023-02-16T17:20:50.466Z,2.19
2023-02-16T17:23:20.316Z,2.09
2023-02-16T17:25:52.097Z,1.99
2023-02-16T17:28:21.306Z,1.90
2023-02-16T17:30:49.319Z,1.83
2023-02-16T17:33:17.238Z,1.77
2023-02-16T17:35:45.285Z,1.76
2023-02-16T17:38:18.906Z,1.75
2023-02-16T17:40:49.289Z,1.77
2023-02-16T17:43:18.815Z,1.81
2023-02-16T17:45:47.441Z,1.87
2023-02-16T17:48:30.305Z,1.95
2023-02-16T17:50:58.394Z,2.04
2023-02-16T17:53:27.558Z,2.11
2023-02-16T17:55:57.869Z,2.20
2023-02-16T17:58:26.172Z,2.28
2023-02-16T18:00:54.366Z,2.34
2023-02-16T18:03:23.161Z,2.41
2023-02-16T18:05:51.699Z,2.47
2023-02-16T18:08:20.189Z,2.53
2023-02-16T18:10:51.553Z,2.60
2023-02-16T18:13:20.467Z,2.68
2023-02-16T18:15:49.809Z,2.73
2023-02-16T18:18:19.107Z,2.79
2023-02-16T18:20:47.524Z,2.87
2023-02-16T18:23:15.989Z,2.93
2023-02-16T18:25:44.318Z,2.99
2023-02-16T18:28:20.083Z,3.04
2023-02-16T18:30:49.386Z,3.10
2023-02-16T18:33:22.200Z,3.15
2023-02-16T18:35:57.589Z,3.21
2023-02-16T18:38:25.836Z,3.28
2023-02-16T18:40:54.955Z,3.36
2023-02-16T18:43:23.881Z,3.41
2023-02-16T18:45:52.107Z,3.47
2023-02-16T18:48:21.890Z,3.52
2023-02-16T18:50:49.986Z,3.57
2023-02-16T18:53:17.967Z,3.61
2023-02-16T18:55:46.137Z,3.66
2023-02-16T18:58:15.043Z,3.70
2023-02-16T19:04:36.634Z,3.78
2023-02-16T19:07:04.991Z,3.82
2023-02-16T19:09:33.276Z,3.85
2023-02-16T19:12:01.260Z,3.87
2023-02-16T19:14:29.291Z,3.89
2023-02-16T19:16:57.418Z,3.92
2023-02-16T19:19:25.521Z,3.95
2023-02-16T19:21:54.355Z,3.95
2023-02-16T19:24:22.883Z,3.97
2023-02-16T19:26:50.968Z,3.98
2023-02-16T19:29:18.921Z,4.00
2023-02-16T19:31:47.973Z,4.00
2023-02-16T19:34:17.069Z,3.99
2023-02-16T19:36:45.428Z,3.96
2023-02-16T19:39:13.724Z,3.95
2023-02-16T19:41:46.271Z,3.93
2023-02-16T19:44:14.880Z,3.92
2023-02-16T19:46:43.332Z,3.91
2023-02-16T19:49:14.487Z,3.90
2023-02-16T19:51:42.946Z,3.88
2023-02-16T19:54:11.020Z,3.85
2023-02-16T19:56:40.608Z,3.83
2023-02-16T19:59:08.992Z,3.79
2023-02-16T20:01:37.004Z,3.75
2023-02-16T20:04:05.462Z,3.72
2023-02-16T20:06:40.470Z,3.68
2023-02-16T20:09:12.435Z,3.65
2023-02-16T20:11:41.388Z,3.62
2023-02-16T20:14:11.342Z,3.60
2023-02-16T20:16:40.719Z,3.59
2023-02-16T20:19:08.851Z,3.57
2023-02-16T20:21:37.069Z,3.54
2023-02-16T20:24:06.917Z,3.52
2023-02-16T20:26:41.368Z,3.50
2023-02-16T20:29:11.586Z,3.49
2023-02-16T20:31:43.687Z,3.48
2023-02-16T20:34:11.840Z,3.48
2023-02-16T20:36:39.933Z,3.48
2023-02-16T20:39:08.452Z,3.48
2023-02-16T20:41:37.100Z,3.46
2023-02-16T20:44:07.339Z,3.47
2023-02-16T20:46:35.713Z,3.47
2023-02-16T20:49:04.852Z,3.46
2023-02-16T20:51:33.144Z,3.46
2023-02-16T20:54:03.874Z,3.46
2023-02-16T20:56:32.249Z,3.47
2023-02-16T20:59:01.495Z,3.46
2023-02-16T21:01:33.744Z,3.47
2023-02-16T21:04:01.799Z,3.47
2023-02-16T21:06:30.274Z,3.45
2023-02-16T21:08:58.457Z,3.45
2023-02-16T21:11:27.297Z,3.45
2023-02-16T21:13:58.002Z,3.45
2023-02-16T21:16:26.308Z,3.46
2023-02-16T21:18:54.669Z,3.44
2023-02-16T21:21:23.548Z,3.42
2023-02-16T21:23:54.034Z,3.40
2023-02-16T21:26:24.826Z,3.39
2023-02-16T21:28:53.432Z,3.37
2023-02-16T21:31:24.380Z,3.35
2023-02-16T21:33:54.439Z,3.34
2023-02-16T21:36:25.041Z,3.33
2023-02-16T21:38:53.869Z,3.33
2023-02-16T21:41:24.679Z,3.32
2023-02-16T21:43:55.931Z,3.32
2023-02-16T21:46:25.409Z,3.32
2023-02-16T21:48:55.251Z,3.33
2023-02-16T21:51:29.676Z,3.33
2023-02-16T21:53:58.819Z,3.34
2023-02-16T21:56:50.386Z,3.35
2023-02-16T21:59:19.970Z,3.37
2023-02-16T22:01:54.367Z,3.40
2023-02-16T22:04:23.052Z,3.43
2023-02-16T22:06:51.785Z,3.45
2023-02-16T22:09:22.634Z,3.46
2023-02-16T22:11:51.529Z,3.46
2023-02-16T22:14:20.206Z,3.46
2023-02-16T22:16:48.828Z,3.47
2023-02-16T22:19:18.507Z,3.48
2023-02-16T22:21:48.046Z,3.50
2023-02-16T22:24:18.540Z,3.51
2023-02-16T22:26:48.537Z,3.52
2023-02-16T22:29:17.217Z,3.52
2023-02-16T22:31:47.591Z,3.53
2023-02-16T22:34:19.654Z,3.53
2023-02-16T22:36:48.010Z,3.55
2023-02-16T22:39:17.342Z,3.58
2023-02-16T22:41:45.375Z,3.60
2023-02-16T22:44:15.061Z,3.61
2023-02-16T22:46:43.516Z,3.62
2023-02-16T22:49:11.713Z,3.63
2023-02-16T22:51:40.261Z,3.65
2023-02-16T22:54:08.654Z,3.68
2023-02-16T22:56:36.652Z,3.71
2023-02-16T22:59:04.671Z,3.72
2023-02-16T23:01:33.062Z,3.74
2023-02-16T23:04:01.920Z,3.76
2023-02-16T23:06:34.240Z,3.77
2023-02-16T23:09:06.046Z,3.78
2023-02-16T23:11:35.184Z,3.80
2023-02-16T23:14:05.196Z,3.83
2023-02-16T23:16:33.355Z,3.86
2023-02-16T23:19:01.321Z,3.88
2023-02-16T23:21:33.156Z,3.91
2023-02-16T23:24:01.262Z,3.93
2023-02-16T23:26:31.123Z,3.94
2023-02-16T23:29:02.207Z,3.95
2023-02-16T23:31:38.814Z,3.96
2023-02-16T23:34:07.569Z,3.99
2023-02-16T23:36:37.329Z,4.00
2023-02-16T23:39:15.236Z,4.03
2023-02-16T23:41:43.549Z,4.06
2023-02-16T23:44:13.790Z,4.07
2023-02-16T23:46:41.921Z,4.09
2023-02-16T23:49:10.197Z,4.10
2023-02-16T23:51:38.224Z,4.11
2023-02-16T23:54:06.669Z,4.12
2023-02-16T23:56:35.448Z,4.13
2023-02-16T23:59:03.513Z,4.15
